Flight Track Log - Related Links

Times and Time Zones

All times are in EDT time to prevent confusion due to time zone crossing. See the GJS3706 flight status page for this flight to view local times or setup timezone preferences in your user account.

Time Position Orientation Groundspeed Altitude Reporting Facility
EDT Latitude Longitude Course Direction KTS MPH feet Rate Location/Type
Mon 07:50:57 PM 39.9000 -104.6500 113° Southeast 224 258 8,200  Level Denver TRACON
Mon 07:51:52 PM 39.8667 -104.5667 118° Southeast 274 315 8,900 1,043 Climbing Denver TRACON
Mon 07:52:52 PM 39.8500 -104.4667 102° East 305 351 10,200 1,300 Climbing Denver TRACON
Mon 07:53:52 PM 39.8333 -104.3500 101° East 330 380 11,500 1,474 Climbing Denver TRACON
Mon 07:54:46 PM 39.8333 -104.2333 90° East 359 413 13,000 1,678 Climbing Denver TRACON
Mon 07:56:00 PM 39.6440 -103.9987 113° Southeast  Level FlightAware Approximate
Mon 07:56:15 PM 39.8131 -104.0431 98° East 382 440 15,500  Level Denver Center
Mon 07:57:17 PM 39.7906 -103.8939 101° East 392 451 17,600 1,742 Climbing Denver Center
Mon 07:58:19 PM 39.7758 -103.7547 98° East 387 445 19,100 1,500 Climbing Denver Center
Mon 07:59:21 PM 39.7597 -103.6139 98° East 396 456 20,700 1,306 Climbing Denver Center
Mon 08:00:23 PM 39.7411 -103.4639 99° East 417 480 21,800 1,113 Climbing Denver Center
Mon 08:01:25 PM 39.7225 -103.3061 99° East 439 505 23,000 1,258 Climbing Denver Center
Mon 08:02:27 PM 39.7050 -103.1458 98° East 448 516 24,400 1,258 Climbing Denver Center
Mon 08:03:29 PM 39.6856 -102.9481 97° East 459 528 25,600 976 Climbing Denver Center
Mon 08:04:30 PM 39.6739 -102.8136 96° East 469 540 26,400 1,024 Climbing Denver Center
Mon 08:05:32 PM 39.6567 -102.5997 96° East 478 550 27,700 1,113 Climbing Denver Center
Mon 08:06:34 PM 39.6414 -102.4361 97° East 480 552 28,700 1,016 Climbing Denver Center
Mon 08:07:36 PM 39.6028 -102.2475 105° East 487 560 29,800 871 Climbing Denver Center
Mon 08:08:38 PM 39.5686 -102.0853 105° East 488 562 30,500 581 Climbing Denver Center
Mon 08:09:40 PM 39.5183 -101.8947 109° East 501 577 31,000 726 Climbing Denver Center
Mon 08:10:42 PM 39.4714 -101.7317 110° East 506 582 32,000 968 Climbing Denver Center
Mon 08:11:44 PM 39.4153 -101.5789 115° Southeast 498 573 33,000 488 Climbing Denver Center
Mon 08:12:45 PM 39.3292 -101.4106 123° Southeast 504 580 33,000  Level Denver Center
Mon 08:13:59 PM 39.2539 -101.2636 123° Southeast 511 588 33,000  Level Denver Center
Mon 08:15:02 PM 39.1517 -101.0647 123° Southeast 520 598 33,000  Level Denver Center
Mon 08:16:03 PM 39.0628 -100.8917 123° Southeast 521 600 33,000  Level Denver Center
Mon 08:17:05 PM 38.9856 -100.7450 124° Southeast 517 595 33,000 290 Level Denver Center
Mon 08:18:07 PM 38.9089 -100.5967 124° Southeast 519 597 33,600 677 Climbing Denver Center
Mon 08:19:09 PM 38.8189 -100.4267 124° Southeast 516 594 34,400 677 Climbing Denver Center
Mon 08:20:11 PM 38.7433 -100.2817 124° Southeast 511 588 35,000 677 Climbing Denver Center
Mon 08:21:13 PM 38.6550 -100.1150 124° Southeast 507 583 35,800 766 Climbing Denver Center
Mon 08:21:45 PM 38.6169 -100.0444 125° Southeast 503 579 36,200 766 Climbing Kansas City Center
Mon 08:22:47 PM 38.5281 -99.8811 125° Southeast 501 577 37,000 677 Climbing Kansas City Center
Mon 08:23:49 PM 38.4519 -99.7447 125° Southeast 495 570 37,600 629 Climbing Kansas City Center
Mon 08:24:51 PM 38.3772 -99.6092 125° Southeast 489 563 38,300 683 Climbing Kansas City Center
Mon 08:25:52 PM 38.2978 -99.4653 125° Southeast 480 552 39,000 341 Climbing Kansas City Center
Mon 08:26:54 PM 38.2222 -99.3297 125° Southeast 472 543 39,000  Level Kansas City Center
Mon 08:27:56 PM 38.1458 -99.1947 126° Southeast 471 542 39,000  Level Kansas City Center
Mon 08:28:57 PM 38.0692 -99.0589 126° Southeast 473 544 39,000  Level Kansas City Center
Mon 08:29:59 PM 37.9772 -98.8964 126° Southeast 474 545 39,000  Level Kansas City Center
Mon 08:31:01 PM 37.9006 -98.7611 126° Southeast 474 545 39,000  Level Kansas City Center
Mon 08:32:02 PM 37.8244 -98.6253 125° Southeast 475 547 39,000 -195 Level Kansas City Center
Mon 08:33:04 PM 37.7461 -98.4917 127° Southeast 476 548 38,600 -677 Descending Kansas City Center
Mon 08:34:06 PM 37.6669 -98.3517 126° Southeast 488 562 37,600 -1,171 Descending Kansas City Center
Mon 08:35:07 PM 37.5853 -98.2114 126° Southeast 498 573 36,200 -1,512 Descending Kansas City Center
Mon 08:36:09 PM 37.4878 -98.0447 126° Southeast 498 573 34,500 -1,452 Descending Kansas City Center
Mon 08:37:11 PM 37.4097 -97.9067 125° Southeast 492 566 33,200 -1,415 Descending Kansas City Center
Mon 08:38:12 PM 37.3281 -97.7697 127° Southeast 490 564 31,600 -1,756 Descending Kansas City Center
Mon 08:39:14 PM 37.2453 -97.6292 126° Southeast 496 571 29,600 -1,935 Descending Kansas City Center
Mon 08:40:16 PM 37.1642 -97.4894 126° Southeast 498 573 27,600 -2,098 Descending Kansas City Center
Mon 08:41:17 PM 37.0875 -97.3578 126° Southeast 481 554 25,300 -2,244 Descending Kansas City Center
Mon 08:42:19 PM 37.0114 -97.2219 125° Southeast 479 551 23,000 -2,468 Descending Kansas City Center
Mon 08:43:21 PM 36.9158 -97.0772 130° Southeast 455 524 20,200 -2,244 Descending Kansas City Center
Mon 08:44:22 PM 36.8553 -96.9783 127° Southeast 448 516 18,400 -2,146 Descending Kansas City Center
Mon 08:45:24 PM 36.7822 -96.8456 124° Southeast 423 487 15,800 -2,341 Descending Kansas City Center
Mon 08:46:25 PM 36.7172 -96.7381 127° Southeast 398 458 13,600 -2,195 Descending Kansas City Center
Mon 08:47:27 PM 36.6422 -96.6139 127° Southeast 378 435 11,300 -1,860 Descending Kansas City Center
Mon 08:48:05 PM 36.5997 -96.5464 128° Southeast 375 432 10,500 -960 Descending Kansas City Center
Mon 08:48:42 PM 36.5633 -96.4833 126° Southeast 370 426 10,100 -557 Descending Kansas City Center
Mon 08:49:42 PM 36.5103 -96.3964 127° Southeast 306 352 9,600 -1,096 Descending Kansas City Center
Mon 08:50:37 PM 36.4642 -96.3214 127° Southeast 282 325 8,000 -1,622 Descending Kansas City Center
Mon 08:51:33 PM 36.4275 -96.2586 126° Southeast 290 334 6,600 -1,525 Descending Kansas City Center
Mon 08:52:35 PM 36.3800 -96.1831 128° Southeast 281 323 5,000 -1,268 Descending Kansas City Center
Mon 08:53:36 PM 36.3528 -96.1028 113° Southeast 264 304 4,000 -976 Descending Kansas City Center
Mon 08:54:38 PM 36.3417 -96.0231 100° East 244 281 3,000 -763 Descending Kansas City Center
Mon 08:55:34 PM 36.3217 -95.9453 108° East 205 236 2,500 -414 Descending Kansas City Center
Mon 08:56:34 PM 36.2903 -95.8950 128° Southeast 174 200 2,200 -512 Descending Kansas City Center
Mon 08:57:43 PM 36.2511 -95.8792 162° South 159 183 1,400 -687 Descending Kansas City Center
Mon 08:58:45 PM 36.2136 -95.8814 183° South 142 163 700 -677 Descending Kansas City Center
Mon 09:00:00 PM 36.1984 -95.8881 130° Southeast  Level Estimated
Mon 09:07:00 PM 36.1984 -95.8881 130° Southeast  Level Estimated

Login

Don't have an account? Register now (free) for customized features, flight alerts, and more!